Results by/Résultats par Info:[email protected] Phone: (613)723-0994


                                    K-TOWN TRIATHLON

                                Sunday August 6th, 2006

                         Confederation Park, Kingston, Ontario

                        Overall Results - Short Course Triathlon

  -----FINAL----- ----------------------- ------------ -------------------- ----           750m                         30km                   7.2km
                                                       Category                     ------SWIM + T1-------    ----------BIKE--------    -------RUN + T2-------- -------
    Pos     Time  Name                    City         Plc/Total Category     #      Cat  Ovr  Time  /100m     Cat Ovr Time  km/hr      Cat  Ovr  Time     km   BRIDGE
  ------  ------- ----------------------- ------------ -------------------- ----    ----------------------    ----------------------    ----------------------- -------
    1     1:22:57 Scott TAKALA            Sydenham       1/8   M20 - 24      589    1      1   11:26  1:32    1      1   47:29  37.9     1      1   24:03  3:21         
    2     1:26:37 Andrew COURCHENE        Carleton Pla   1/6   Junior Men    475    2      5   13:10  1:46    1      2   48:09  37.4     1      2   25:18  3:31         
    3     1:28:52 Zorian MAKSYMEC         Inverary       2/6   Junior Men    356    1      2   12:02  1:37    2      4   49:14  36.6     3      6   27:37  3:51         
    4     1:31:33 Trevor DAVIES           Kingston       1/21  M35 - 39      569    1     21   14:30  1:56    2      9   50:11  35.9     2      8   27:47  3:52    0:54 
    5     1:33:12 Jim SCHRIEL             Kanata         1/15  M30 - 34      511    3     36   15:33  2:05    1      7   49:55  36.1     1      7   27:46  3:52         
    6     1:33:18 Dougal BALE             Kingston       2/21  M35 - 39      524    2     27   15:01  2:01    4     14   51:16  35.1     1      4   27:02  3:46         
    7     1:34:01 Andrew SLOT             Kingston       1/11  M25 - 29      380    1      3   12:09  1:38    3      6   49:41  36.2     4     47   32:13  4:29         
    8     1:34:18 Larbi BENHABIB          Toronto        2/11  M25 - 29      558    2     30   15:18  2:03    2      5   49:31  36.4     1     18   29:42  4:08    0:12 
    9     1:34:48 Douglas POUCHER         Kingston       1/25  M50 - 54      534    2     28   15:15  2:02    4     32   53:08  33.9     1      3   26:26  3:41         
   10     1:35:06 Gerry LASHLEY           Toronto        1/30  M40 - 44      578    4     31   15:20  2:03    3     21   51:57  34.6     1     10   27:50  3:52         
   11     1:35:12 Noel HARRINGTON         Ottawa         2/30  M40 - 44      563    2     12   13:43  1:50    7     30   52:59  34.0     2     11   28:31  3:58         
   12     1:35:20 Matt EDWARDS            Odessa         3/6   Junior Men    592    3     23   14:42  1:58    3     13   51:02  35.3     4     16   29:37  4:07         
   13     1:35:50 David STEPHENS          Toronto        3/11  M25 - 29      539    3     56   16:56  2:16    1      3   48:38  37.0     2     24   30:17  4:13         
   14     1:36:22 Todd HUGHSON            Burlington     3/30  M40 - 44      360    3     19   14:22  1:55    4     22   52:04  34.6     5     20   29:57  4:10         
   15     1:36:28 Christopher GRIMWOOD    Guelph         2/15  M30 - 34      388    1      6   13:15  1:46    4     39   54:30  33.0     2     12   28:44  4:00         
   16     1:36:47 Bill DEE                Unionville     3/21  M35 - 39      373    5     38   15:35  2:05    3     12   50:48  35.4     6     25   30:24  4:14         
   17     1:37:09 Kevin PENNY             Ottawa         2/25  M50 - 54      595    1     16   14:16  1:55    1     17   51:25  35.0     3     37   31:28  4:23         
   18     1:37:29 Paul WILSON             Peterborough   4/21  M35 - 39      392    9     92   17:57  2:24    1      8   50:05  35.9     4     14   29:28  4:06         
   19     1:37:32 Lianne Archa MORISSETTE Kingston       1/22  W35 - 39      305    1      7   13:15  1:46    1     10   50:25  35.7     1     73   33:53  4:43         
   20     1:37:56 Craig FAUCETTE          Kingston       3/15  M30 - 34      527    2     32   15:22  2:03    2     19   51:34  34.9     3     34   31:01  4:19         
   21     1:38:21 Amy KIRKHAM             Kingston       1/11  W20 - 24      538    4     33   15:23  2:04    1     36   53:56  33.4     1     13   29:02  4:02         
   22     1:38:36 Charlie BRIND           Westwood       1/25  M45 - 49      417    1     17   14:19  1:55    5     34   53:32  33.6     1     31   30:46  4:17         
   23     1:38:48 John SCHLOTTKE          Seeleys Bay    4/30  M40 - 44      532    1     11   13:31  1:49    5     23   52:32  34.3     15    58   32:47  4:34         
   24     1:38:49 Mitch FALLIS            Yarker         2/25  M45 - 49      313    6     45   16:04  2:09    1     15   51:17  35.1     2     39   31:29  4:23         
   25     1:39:11 William COOPER          Na             3/25  M45 - 49      374    4     29   15:15  2:02    2     18   51:26  35.0     5     49   32:30  4:31         
   26     1:39:17 Laurie ROSS             Battersea      1/15  W45 - 49      345    1      9   13:27  1:48    1     28   52:52  34.0     1     63   32:59  4:35         
   27     1:39:30 Murray TOUGH            Kingston       5/30  M40 - 44      387    11    69   17:23  2:19    2     16   51:20  35.1     9     32   30:48  4:17         
   28     1:39:43 Jairo MUNOZ             Kingston       6/30  M40 - 44      411    9     58   17:01  2:17    1     11   50:38  35.5     12    45   32:05  4:28         
   29     1:39:48 Paul BOSTON             Toronto        7/30  M40 - 44      526    7     50   16:34  2:13    8     35   53:39  33.6     3     15   29:36  4:07         
   30     1:40:19 Damon DAGNONE           Kingston       5/21  M35 - 39      564    4     35   15:28  2:04    5     41   54:39  32.9     5     22   30:13  4:12         
   31     1:41:39 Keempee STEIN           Kingston       4/6   Junior Men    451    4     48   16:20  2:11    4     46   55:05  32.7     5     23   30:16  4:13         
   32     1:42:09 Denis MOORE             Napanee        4/25  M45 - 49      353    9     63   17:07  2:17    3     24   52:36  34.2     4     48   32:27  4:31         
   33     1:42:41 James BRODERICK         Canandaigua    5/25  M45 - 49      401    2     18   14:20  1:55    9     50   55:35  32.4     8     59   32:47  4:34         
   34     1:43:04 Connor PRICE            Ottawa         5/6   Junior Men    494    5     75   17:34  2:21    6     81   58:10  30.9     2      5   27:20  3:48         
   35     1:43:39 Lianne CRAWFORD         Toronto        2/22  W35 - 39      370    2      8   13:23  1:47    2     53   55:50  32.2     4     82   34:27  4:48         
   36     1:43:44 Brian MACGILLIVRAY      Kingston       8/30  M40 - 44      363    5     37   15:34  2:05    11    56   55:59  32.2     13    46   32:12  4:29         
   37     1:43:54 Mark DAVIS              Peterborough   6/25  M45 - 49      580    11    72   17:32  2:21    7     42   54:41  32.9     3     41   31:41  4:25         
   38     1:43:55 Brian FARNELL           RR1 Inverary   3/25  M50 - 54      441    11   103   18:19  2:27    3     31   53:03  33.9     4     50   32:33  4:32         
   39     1:44:02 Erika MCEACHRAN         Ottawa         1/13  W30 - 34      585    1     15   14:06  1:53    1     43   54:47  32.9     3     94   35:10  4:53         
   40     1:44:09 Gary TRANMER            Sault St Mar   1/6   M55 - 59      587    1     61   17:06  2:17    1     37   54:07  33.3     1     62   32:58  4:35         
   41     1:44:17 Eric LINDENBERG         Belleville     4/25  M50 - 54      415    16   160   20:18  2:43    2     25   52:46  34.1     2     36   31:14  4:21         
   42     1:44:21 Claire MICHEL           Kingston       1/13  W25 - 29      552    2     42   15:50  2:07    1     26   52:47  34.1     4    105   35:45  4:58         
   43     1:44:26 John PICKARD            Rr #1 lindsa   1/5   M60 - 64      408    1     96   18:05  2:25    1     52   55:48  32.3     1     28   30:34  4:15         
   44     1:44:48 James TUCK              Port Perry     7/25  M45 - 49      404    3     22   14:31  1:57    10    73   57:38  31.2     7     53   32:40  4:33         
   45     1:45:04 Lou LAFLAMME            Ottawa         9/30  M40 - 44      576    18   129   19:23  2:35    9     45   55:04  32.7     7     29   30:39  4:16         
   46     1:45:24 Tara RAWLUK             Stirling       2/13  W30 - 34      346    2     26   15:01  2:01    2     48   55:28  32.5     2     90   34:55  4:51         
   47     1:45:32 David PETERSON          Napanee        6/21  M35 - 39      508    6     40   15:40  2:06    10    79   58:07  31.0     7     42   31:46  4:25         
   48     1:45:36 Brent ARMSTRONG         Whitby        10/30  M40 - 44      550    13    74   17:33  2:21    12    57   56:03  32.1     11    44   32:01  4:27         
   49     1:45:44 Andrew THEW             Belleville    11/30  M40 - 44      309    21   150   20:00  2:40    6     29   52:58  34.0     16    60   32:47  4:34         
   50     1:45:45 Richard CADMAN          Battersea      8/25  M45 - 49      319    8     49   16:31  2:13    4     27   52:48  34.1     11   116   36:26  5:04         
   51     1:45:54 Kevin PILLING           Brockville     4/15  M30 - 34      549    6     68   17:19  2:19    5     54   55:53  32.2     6     54   32:43  4:33         
   52     1:46:17 Steve MCCREADY          Ottawa        12/30  M40 - 44      465    10    67   17:14  2:18    18    72   57:35  31.3     10    38   31:29  4:23         
   53     1:46:42 Carlos GONZALEZ         Ajax           5/25  M50 - 54      406    9     97   18:07  2:25    7     44   55:02  32.7     7     68   33:33  4:40         
   54     1:46:57 Francois BEAUPRE        Kingston       5/15  M30 - 34      425    9    137   19:35  2:37    3     20   51:54  34.7     8    100   35:29  4:56         
   55     1:47:02 Michael BELSHAW         Hamilton       4/11  M25 - 29      555    5    105   18:20  2:27    4     55   55:56  32.2     6     56   32:46  4:34         
   56     1:47:07 Lauren SAGADORE         Perth Road     1/4   Junior Women  327    2     20   14:25  1:56    1     85   58:28  30.8     3     78   34:15  4:46         
   57     1:47:21 Rob ROWLATT             Kingston       7/21  M35 - 39      376    17   180   20:56  2:48    11    86   58:37  30.7     3      9   27:48  3:52         
   58     1:47:27 Sam MCHUGH              Toronto        6/15  M30 - 34      541    4     51   16:43  2:14    6     90   59:06  30.5     4     40   31:39  4:24         
   59     1:47:41 Richard BEARE           Kingston       2/8   M20 - 24      484    3    153   20:03  2:41    2     75   57:46  31.2     2     19   29:52  4:09         
   60     1:47:41 Dale ENGEN              Kingston      13/30  M40 - 44      455    23   157   20:06  2:41    16    65   56:52  31.7     8     30   30:44  4:17         
   61     1:47:58 Don COWIN               Kingston       6/25  M50 - 54      333    3     39   15:39  2:06    10    93   59:26  30.3     5     61   32:55  4:35         
   62     1:48:04 Al GARRAH               Kingston      14/30  M40 - 44      463    8     53   16:47  2:15    13    58   56:05  32.1     20    95   35:13  4:54         
   63     1:48:10 Cyrus BOADWAY           Kingston       5/11  M25 - 29      504    4     62   17:07  2:17    7     83   58:20  30.9     5     55   32:44  4:33         
   64     1:48:16 Andrew WHITE            Uxbridge       8/21  M35 - 39      481    10    95   18:00  2:24    7     67   57:06  31.5     8     64   33:11  4:37         
   65     1:48:18 Mark FREDERICK          Kingston       7/25  M50 - 54      562    20   184   21:05  2:49    5     33   53:26  33.7     8     71   33:49  4:42         
   66     1:48:40 Simon GOLLISH           Paris          6/6   Junior Men    424    6     85   17:47  2:23    5     68   57:06  31.5     6     70   33:48  4:42         
   67     1:48:56 Daryl NAUMAN            Kingston       6/11  M25 - 29      460    7    161   20:18  2:43    6     80   58:08  31.0     3     26   30:30  4:15         
   68     1:49:29 David STOCKS            Kingston       9/25  M45 - 49      379    12    89   17:55  2:24    8     47   55:27  32.5     10   110   36:08  5:02         
   69     1:49:40 Greg PHELAN             Kingston      15/30  M40 - 44      517    12    70   17:30  2:20    14    59   56:08  32.1     22   108   36:03  5:01         
   70     1:50:08 Jeff MUSSON             Trenton       10/25  M45 - 49      427    5     43   15:51  2:07    6     40   54:36  33.0     15   162   39:42  5:31         
   71     1:50:15 Peter ELLIS             Kingston      11/25  M45 - 49      490    16   136   19:35  2:37    11    78   58:06  31.0     6     51   32:35  4:32         
   72     1:50:16 Alan WONG               Kingston       3/8   M20 - 24      462    4    154   20:04  2:41    3     91   59:13  30.4     3     33   31:00  4:19         
   73     1:50:19 Sheri MCCREADY          Ottawa         1/23  W40 - 44      464    8    119   19:03  2:33    1     64   56:35  31.8     1     88   34:43  4:50         
   74     1:50:34 Carolina HEINS          Sydenham       2/15  W45 - 49      586    2     55   16:55  2:16    2     66   56:55  31.6     2    124   36:45  5:07         
   75     1:50:48 Stephen OIKAWA          Kingston       9/21  M35 - 39      568    16   167   20:37  2:45    6     49   55:33  32.4     11    86   34:38  4:49         
   76     1:50:53 Breanne GIBSON          Kingston       2/11  W20 - 24      472    1     10   13:30  1:48    2    131 1:01:45  29.1     2    103   35:39  4:57         
   77     1:50:56 Hannah VERNON           Morgantown     2/4   Junior Women  470    1     14   14:04  1:53    2     94   59:31  30.2     4    138   37:22  5:12         
   78     1:51:05 Anne MYERS              Toronto        2/13  W25 - 29      308    8    126   19:20  2:35    5    123 1:01:12  29.4     1     27   30:34  4:15         
   79     1:51:19 Ed BRAND                Kingston       2/5   M60 - 64      366    2    101   18:18  2:27    2     95   59:37  30.2     2     67   33:25  4:39         
   80     1:51:29 Marco ALESSIO           Elora         16/30  M40 - 44      341    24   191   21:21  2:51    15    63   56:34  31.8     17    69   33:34  4:40         
   81     1:51:38 Dave ROBERTSON          Kingston      17/30  M40 - 44      468    16   111   18:51  2:31    17    70   57:16  31.4     21   101   35:32  4:57         
   82     1:51:42 Michael BURLEIGH        Inverary      18/30  M40 - 44      349    25   201   22:17  2:59    21   100   59:48  30.1     4     17   29:38  4:07         
   83     1:51:54 Shelley MULROONEY       Kingston       2/23  W40 - 44      315    3     94   17:59  2:24    4     87   58:39  30.7     2     97   35:17  4:54         
   84     1:52:05 Rick HUNT               Kingston       8/25  M50 - 54      444    12   124   19:11  2:34    6     38   54:26  33.1     16   149   38:29  5:21         
   85     1:52:05 Ellen MAITLAND          Toronto        3/22  W35 - 39      574    4     44   15:59  2:08    4    128 1:01:25  29.3     5     87   34:42  4:50         
   86     1:52:15 Brendan FLOWERS         Kingston       7/11  M25 - 29      375    8    176   20:52  2:47    5     61   56:23  31.9     7     92   35:01  4:52         
   87     1:52:29 John DUFFNEY            Kingston      19/30  M40 - 44      559    22   152   20:02  2:41    22   101   59:51  30.1     14    52   32:36  4:32         
   88     1:52:38 Mark RICHARDS           Inverary       7/15  M30 - 34      357    11   142   19:47  2:39    7    120 1:01:02  29.5     5     43   31:50  4:26         
   89     1:52:41 Kevin COFFEY            Kingston       4/8   M20 - 24      439    5    171   20:39  2:46    4    117 1:01:00  29.5     4     35   31:04  4:19         
   90     1:52:57 Scott VOWLES            Kingston      10/21  M35 - 39      487    8     78   17:39  2:22    8     69   57:08  31.5     16   147   38:10  5:19         
   91     1:53:07 Abigail MORKEM          Bath           3/13  W25 - 29      393    6     83   17:46  2:23    2     98   59:43  30.1     3    104   35:39  4:58         
   92     1:53:20 Dave WHITE              Ottawa         9/25  M50 - 54      330    15   147   19:58  2:40    8     62   56:29  31.9     12   131   36:54  5:08         
   93     1:53:21 Jill SCOTT              Kingston       3/23  W40 - 44      536    7    118   19:00  2:32    2     82   58:14  30.9     3    109   36:07  5:01         
   94     1:53:31 Gunther KLASCHKA        Kingston       1/2   M70 - 74      571    2    179   20:55  2:48    1     60   56:09  32.1     1    117   36:27  5:04         
   95     1:53:42 Doug LAUGHTON           Ottawa        20/30  M40 - 44      343    15   110   18:48  2:31    25   115 1:00:48  29.6     18    76   34:07  4:45         
   96     1:53:48 Andrew PAQUIN           Inverary      11/21  M35 - 39      362    14   127   19:21  2:35    13   107 1:00:11  29.9     9     79   34:16  4:46         
   97     1:53:53 Brian BECK              Kingston      21/30  M40 - 44      344    20   143   19:48  2:39    19    76   57:47  31.2     23   112   36:19  5:03         
   98     1:53:56 Kristin OSTLER          Kingston       3/4   Junior Women  418    3     41   15:47  2:07    3    168 1:04:18  28.0     2     72   33:52  4:43         
   99     1:54:09 Scott GREENOUGH         Trenton       12/21  M35 - 39      554    7     64   17:12  2:18    16   118 1:01:01  29.5     14   106   35:58  5:00         
  100     1:54:14 Stephen SARGEANT        Kingston      13/21  M35 - 39      522    12   109   18:46  2:31    14   113 1:00:32  29.7     12    91   34:57  4:52         
  101     1:54:19 Darlene HOWE            Oshawa         4/23  W40 - 44      596    10   135   19:34  2:37    3     84   58:26  30.8     5    113   36:21  5:03         
  102     1:54:31 Ken ANDERSON            Kingston      22/30  M40 - 44      371    6     46   16:12  2:10    20    92   59:22  30.3     27   156   38:58  5:25         
  103 PEN 1:54:35 Carla DIFAZIO COOK      St. Catharin   4/22  W35 - 39      575    8    117   18:59  2:32    3     96   59:38  30.2     2     74   33:59  4:44         
  104     1:54:36 Marc LEMIEUX            Kingston      14/21  M35 - 39      516    11   107   18:27  2:28    15   116 1:00:48  29.6     13    99   35:22  4:55         
  105     1:54:45 Andrew HALL             Kingston      12/25  M45 - 49      403    13    90   17:56  2:24    12    88   58:44  30.6     13   145   38:06  5:18         
  106     1:55:07 Edward FINGLAND         Kingston       8/15  M30 - 34      476    5     57   17:00  2:16    8    121 1:01:10  29.4     11   132   36:58  5:09         
  107     1:55:08 Alix CRONK              Kingston       3/11  W20 - 24      448    2     13   13:54  1:52    3    149 1:03:12  28.5     4    144   38:03  5:18         
  108     1:55:15 Shan JHAMANDAS          Kingston       9/15  M30 - 34      501    12   169   20:38  2:46    10   129 1:01:26  29.3     7     65   33:12  4:37         
  109     1:55:34 Richard CAMERON         Kingston       2/6   M55 - 59      398    2    151   20:01  2:41    3    104   59:58  30.0     2    102   35:36  4:57         
  110     1:55:37 Gavin WARDLE            Toronto       15/21  M35 - 39      582    13   121   19:07  2:33    17   136 1:02:14  28.9     10    80   34:17  4:46         
  111     1:55:46 Brenda BEMIS            Oshawa         3/15  W45 - 49      390    6    120   19:04  2:33    3    103   59:57  30.0     3    126   36:47  5:07         
  112     1:56:00 Jean PAQUIN             Inverary       3/13  W30 - 34      599    3    106   18:22  2:27    4    147 1:03:10  28.5     1     83   34:29  4:48         
  113     1:56:01 Brian HEAD              Oshawa        10/25  M50 - 54      597    4     60   17:02  2:17    11   130 1:01:40  29.2     13   136   37:19  5:11         
  114     1:56:21 Rachael MORKEM          Kingston       4/13  W25 - 29      433    5     79   17:40  2:22    3     99   59:46  30.1     6    154   38:56  5:25         
  115     1:56:50 Terry HALEY             Yarker        23/30  M40 - 44      316    29   234   24:45  3:18    10    51   55:42  32.3     24   114   36:24  5:04         
  116     1:56:56 Jennifer BROWN          Gatineau       5/22  W35 - 39      593    3     24   14:51  1:59    14   201 1:07:49  26.5     3     81   34:17  4:46         
  117     1:57:14 Cuthbert CHEUNG         Belleville    11/25  M50 - 54      502    7     84   17:46  2:23    14   141 1:02:47  28.7     10   122   36:42  5:06         
  118     1:57:26 Geoff DEIR              Gananoque     16/21  M35 - 39      332    15   141   19:46  2:39    12    97   59:40  30.2     15   143   38:02  5:17         
  119     1:57:28 Brian FRANK             Kingston      10/15  M30 - 34      533    8     91   17:57  2:24    12   144 1:02:53  28.6     9    121   36:39  5:06         
  120     1:57:33 Sue MCIVER              Kingston       5/23  W40 - 44      430    2     88   17:53  2:23    6    132 1:01:49  29.1     11   140   37:53  5:16         
  121     1:57:40 Sarah BYERS             Kingston       6/22  W35 - 39      567    12   144   19:49  2:39    5    145 1:03:02  28.6     6     89   34:50  4:51         
  122     1:57:41 Tim MCMICHAEL           Kingston      13/25  M45 - 49      359    14   115   18:53  2:32    13    89   59:03  30.5     16   164   39:46  5:32         
  123     1:57:56 Vince RAMSAY            Inverary      12/25  M50 - 54      355    18   178   20:54  2:48    17   159 1:03:46  28.2     6     66   33:17  4:38         
  124     1:57:59 Ryan DALES              Kingston      11/15  M30 - 34      368    10   138   19:37  2:37    9    122 1:01:12  29.4     12   134   37:11  5:10         
  125     1:58:11 Holly MORRISON          Kingston       5/13  W25 - 29      429    10   168   20:38  2:45    4    119 1:01:01  29.5     5    118   36:33  5:05         
  126     1:58:14 Michael LATTIMORE       Kingston      14/25  M45 - 49      466    15   134   19:33  2:37    14   102   59:54  30.1     14   153   38:49  5:24         
  127     1:58:17 Laurent GODIN           Kingston      24/30  M40 - 44      318    27   218   23:08  3:06    24   112 1:00:32  29.7     19    85   34:38  4:49         
  128     1:58:20 Doug RONSON             Kingston      15/25  M45 - 49      385    23   227   23:39  3:10    17   114 1:00:33  29.7     9     77   34:08  4:45         
  129     1:58:27 Dave MARKOTICH          Harrowsmith   25/30  M40 - 44      432                              30                         6     21   30:04  4:11         
  130     1:58:43 G. Ross WALKER          Glenburnie    13/25  M50 - 54      340    5     65   17:14  2:18    16   154 1:03:35  28.3     14   141   37:56  5:17         
  131     1:58:45 Catherine CAMPANARO     Kingston       6/23  W40 - 44      579    9    123   19:09  2:34    7    142 1:02:50  28.6     8    125   36:46  5:07         
  132     1:58:46 Penny LOWE              Kingston       7/23  W40 - 44      467    6    108   18:43  2:30    9    156 1:03:40  28.3     6    115   36:25  5:04         
  133     1:58:51 Dave GROSS              Clifton Park  14/25  M50 - 54      543    13   140   19:43  2:38    15   148 1:03:11  28.5     9    107   35:58  5:00         
  134     2:00:11 Trevor RAPS             Kingston       5/8   M20 - 24      509    2    122   19:09  2:34    5    167 1:04:16  28.0     5    127   36:47  5:07         
  135     2:00:12 Dean TIMBRELL           Ingleside     16/25  M45 - 49      565    22   197   22:02  2:57    20   127 1:01:21  29.3     12   128   36:50  5:07         
  136     2:00:18 Cindy HEALY             Kingston       4/15  W45 - 49      324    7    139   19:37  2:37    5    110 1:00:21  29.8     5    172   40:20  5:37         
  137     2:00:19 Suzanne DOSTALER        Kingston       1/6   W50 - 54      421    3    210   22:46  3:03    1    138 1:02:28  28.8     1     93   35:05  4:53         
  138     2:00:32 Jennifer CAUGHILL       Niagara on t   8/23  W40 - 44      342    13   166   20:37  2:45    8    155 1:03:39  28.3     4    111   36:17  5:03         
  139     2:00:51 Derek OUELLET           Kingston      17/25  M45 - 49      323    7     47   16:14  2:10    16   108 1:00:14  29.9     24   219   44:24  6:10         
  140     2:01:04 Cheryl ENDERS           Kingston       5/15  W45 - 49      443    3     66   17:14  2:18    6    133 1:01:55  29.1     6    186   41:56  5:50         
  141     2:01:06 Nancy BRENNAN           Kingston       1/3   W55 - 59      314    1    116   18:57  2:32    1    165 1:04:09  28.1     2    142   38:00  5:17         
  142     2:01:09 Brian FLYNN             Kingston      26/30  M40 - 44      402    19   131   19:28  2:36    26   153 1:03:33  28.3     25   146   38:09  5:18         
  143     2:01:12 Mike SCHAUB             Sydenham      17/21  M35 - 39      431    18   222   23:14  3:06    9     74   57:44  31.2     18   169   40:14  5:36         
  144     2:01:25 Greg KERR               Tweed          3/6   M55 - 59      303    4    187   21:16  2:51    2     77   57:55  31.1     5    190   42:14  5:52         
  145     2:01:27 Robb SCHOULAR           Stittsville   18/25  M45 - 49      302    10    71   17:30  2:20    22   150 1:03:16  28.5     18   175   40:41  5:40         
  146     2:01:39 Helga GRODZINSKI        Kingston       6/15  W45 - 49      551    4     81   17:42  2:22    4    109 1:00:19  29.8     7    212   43:39  6:04         
  147     2:01:40 Andres PUGI             Mississauga   19/25  M45 - 49      537    18   159   20:14  2:42    15   106 1:00:10  29.9     19   180   41:18  5:45         
  148     2:01:52 Cliff MOUNTAIN          Yarker        20/25  M45 - 49      440    17   155   20:05  2:41    18   124 1:01:15  29.4     17   173   40:34  5:38         
  149     2:01:54 Brenda FARNQUIST        Kingston       7/22  W35 - 39      520    14   158   20:12  2:42    6    146 1:03:09  28.5     10   150   38:34  5:22         
  150     2:02:06 Beverley WHITEN         Kingston       9/23  W40 - 44      489    14   181   21:00  2:48    12   172 1:04:30  27.9     7    119   36:37  5:06         
  151     2:02:16 Shirley MYERS           Kingston       2/3   W55 - 59      300    2    219   23:10  3:06    2    177 1:05:04  27.7     1     75   34:02  4:44         
  152     2:02:43 Ian SEMPOWSKI           Kingston      27/30  M40 - 44      416    17   125   19:12  2:34    23   111 1:00:29  29.8     29   203   43:03  5:59         
  153     2:02:59 Faye THOMPSON           Kingston       8/22  W35 - 39      514    18   205   22:24  3:00    7    158 1:03:44  28.2     8    129   36:52  5:08         
  154     2:03:15 Beth BRUCE              Kingston       9/22  W35 - 39      400    11   133   19:30  2:36    12   195 1:07:08  26.8     7    120   36:38  5:06         
  155     2:03:19 Susan CHAMBERLAIN       Kingston      10/23  W40 - 44      506    5    104   18:19  2:27    14   186 1:06:04  27.2     12   155   38:56  5:25         
  156     2:03:23 Michelle POTHIER        Picton        11/23  W40 - 44      566    17   206   22:33  3:01    10   157 1:03:44  28.2     9    133   37:07  5:10         
  157     2:03:40 Tara DONOVAN            Kingston       6/13  W25 - 29      486    11   177   20:52  2:47    8    202 1:08:11  26.4     2     84   34:38  4:49         
  158     2:03:53 Kim GRIMARD             Kingston       4/11  W20 - 24      438    6     59   17:01  2:17    4    184 1:05:58  27.3     5    177   40:55  5:41         
  159     2:03:55 Brett LOCKERBIE         Bath          15/25  M50 - 54      328    17   162   20:26  2:44    13   140 1:02:45  28.7     18   176   40:45  5:40         
  160     2:04:11 Brodie MCDONELL         Kanata        12/15  M30 - 34      322    13   224   23:26  3:08    13   160 1:03:53  28.2     10   130   36:53  5:08         
  161     2:04:30 Mike WARD               Kingston      16/25  M50 - 54      523    10    98   18:09  2:26    18   161 1:03:58  28.1     21   193   42:23  5:54         
  162     2:04:39 Jenn ROSS               Merrickville  10/22  W35 - 39      361    13   149   19:59  2:40    8    170 1:04:25  27.9     12   170   40:16  5:36         
  163     2:05:03 John DANCE              Ottawa         4/6   M55 - 59      413    3    156   20:06  2:41    4    169 1:04:20  28.0     4    174   40:39  5:39         
  164     2:05:06 Kathryn KATSIROUMPAS    Toronto       11/22  W35 - 39      581    6     99   18:10  2:26    9    174 1:04:45  27.8     14   189   42:12  5:52         
  165     2:05:11 Heather MURRAY          Kingston      12/23  W40 - 44      367    1     77   17:37  2:21    11   163 1:04:06  28.1     18   211   43:30  6:03         
  166     2:05:15 Leanne SHAPTON          London         5/11  W20 - 24      583    5     52   16:45  2:14    5    188 1:06:09  27.2     7    192   42:21  5:53         
  167     2:05:15 Michael TUCK            Sunderland    28/30  M40 - 44      409    14    87   17:51  2:23    28   173 1:04:30  27.9     28   200   42:56  5:58         
  168     2:05:22 Jim FOSTER              Kingston      21/25  M45 - 49      531    19   173   20:46  2:47    19   126 1:01:20  29.3     22   207   43:17  6:01         
  169     2:05:26 Cory CRONK              Kingston      17/25  M50 - 54      447    19   183   21:04  2:49    12   134 1:02:07  29.0     20   191   42:17  5:53         
  170     2:05:27 Cindy COWIN             Kingston       2/6   W50 - 54      335    1    188   21:17  2:51    2    162 1:04:04  28.1     2    167   40:07  5:35         
  171     2:06:04 Scott BURTON            Amherstview    8/11  M25 - 29      477    10   239   25:27  3:24    10   180 1:05:22  27.5     8     96   35:16  4:54         
  172     2:06:11 Alice VERNON            Morgantown     7/15  W45 - 49      471    10   208   22:41  3:02    7    151 1:03:28  28.4     4    166   40:03  5:34         
  173     2:06:12 Scott MORRISON          Kingston      29/30  M40 - 44      326    26   202   22:19  2:59    29   178 1:05:07  27.6     26   152   38:47  5:24         
  174     2:06:21 Shannon BURWASH         Whitby        12/22  W35 - 39      394    10   130   19:24  2:36    11   193 1:07:02  26.9     11   165   39:56  5:33         
  175     2:06:33 Lorne SCHMIDT           Orleans       18/25  M50 - 54      378    22   207   22:33  3:01    19   182 1:05:36  27.4     15   148   38:25  5:21         
  176     2:06:42 Laura TUCK              Kittery       13/22  W35 - 39      410    7    100   18:17  2:27    18   224 1:11:06  25.3     9    137   37:20  5:12         
  177     2:07:12 Miriam LYON             Kingston       7/13  W25 - 29      480    4     76   17:35  2:21    9    211 1:09:25  25.9     7    168   40:13  5:36         
  178     2:07:19 John HALL               Kingston       5/6   M55 - 59      337    6    215   23:01  3:05    5    176 1:04:57  27.7     3    157   39:22  5:28         
  179     2:07:23 Bruce MCLEOD            Kingston      22/25  M45 - 49      339    21   194   21:40  2:54    21   137 1:02:23  28.9     23   208   43:22  6:02         
  180     2:07:33 Adam METCALFE           Kingston       9/11  M25 - 29      428    6    145   19:50  2:39    9    175 1:04:49  27.8     11   199   42:55  5:58         
  181     2:07:35 Elizabeth WYCLIFFE      Kingston       8/13  W25 - 29      544    1      4   12:39  1:42    12   236 1:13:38  24.4     8    181   41:18  5:45         
  182     2:07:41 Jeanne SCHRIEL          Nepean         9/13  W25 - 29      510    3     54   16:54  2:16    7    198 1:07:20  26.7     10   210   43:29  6:03         
  183     2:08:01 Tiago CALDAS            Kinsgton      13/15  M30 - 34      545    7     80   17:42  2:22    14   187 1:06:09  27.2     14   218   44:11  6:09         
  184     2:08:17 Karen JUTZI             North York     4/13  W30 - 34      483    11   213   22:55  3:04    3    143 1:02:51  28.6     7    195   42:32  5:55         
  185     2:08:25 Shawn PARISIEN          Cornwall      10/11  M25 - 29      478    11   257   30:37  4:05    8    139 1:02:31  28.8     9     98   35:17  4:54         
  186     2:09:05 Sarah OUGHTON           Mississauga    5/13  W30 - 34      473    4    112   18:51  2:31    7    200 1:07:42  26.6     8    196   42:33  5:55         
  187     2:09:18 Vicky PEARSON           Kingston      13/23  W40 - 44      452    12   165   20:33  2:45    13   183 1:05:51  27.3     16   198   42:54  5:58         
  188     2:09:19 Diane URIE              Kingston      14/22  W35 - 39      414    5     73   17:32  2:21    15   213 1:09:57  25.7     13   184   41:51  5:49         
  189     2:09:36 Julia WYCLIFFE          Kingston       6/11  W20 - 24      499    3     25   14:55  2:00    10   250 1:17:16  23.3     3    139   37:27  5:12         
  190     2:09:38 Josey STEEL             Inverary      14/23  W40 - 44      348    16   200   22:16  2:59    18   218 1:10:12  25.6     10   135   37:11  5:10         
  191     2:09:39 Leah REINBERGER         Ottawa         6/13  W30 - 34      540    7    203   22:20  2:59    6    199 1:07:36  26.6     4    163   39:44  5:32         
  192     2:09:52 Hugh CONNOR             Oshawa         3/5   M60 - 64      312    4    253   30:12  4:02    3    105 1:00:08  29.9     3    161   39:34  5:30         
  193     2:10:25 David ANDREW            Kingston       6/6   M55 - 59      456    5    193   21:39  2:54    6    179 1:05:19  27.6     6    209   43:28  6:03         
  194     2:10:44 Rob RENAUD              Kingston      19/25  M50 - 54      334    6     82   17:43  2:22    24   209 1:09:18  26.0     22   213   43:43  6:05         
  195     2:10:44 Karen MURPHY            RR #2 Perth    8/15  W45 - 49      496    5     93   17:59  2:24    8    206 1:08:56  26.1     8    214   43:51  6:06         
  196     2:11:07 Mike PORTER             Kingston      30/30  M40 - 44      542    28   225   23:31  3:09    27   171 1:04:28  27.9     30   205   43:08  6:00         
  197     2:11:22 Christine SCHLOEN       Toronto       15/23  W40 - 44      525    22   243   27:07  3:37    5    125 1:01:15  29.4     17   201   43:01  5:59         
  198     2:11:34 Susan CRITOPH           Toronto       16/23  W40 - 44      503    11   164   20:30  2:44    17   204 1:08:34  26.3     15   194   42:32  5:55         
  199     2:12:02 Will HODGSKISS          Kingston      20/25  M50 - 54      384    21   185   21:06  2:49    23   208 1:09:02  26.1     19   185   41:55  5:50         
  200     2:12:22 Jody SKINNER            Orleans       15/22  W35 - 39      317    17   198   22:08  2:58    13   197 1:07:11  26.8     15   204   43:03  5:59         
  201     2:12:51 Gisele CONNOR           Oshawa         3/3   W55 - 59      311    3    232   24:28  3:16    3    207 1:08:58  26.1     3    158   39:26  5:29         
  202     2:12:58 Laurie LOCKERBIE        Bath           3/6   W50 - 54      329    2    196   21:56  2:56    3    164 1:04:08  28.1     4    231   46:55  6:31         
  203     2:13:01 Stephen PETRICK         Belleville    11/11  M25 - 29      498    9    216   23:04  3:05    11   220 1:10:25  25.6     10   160   39:33  5:30         
  204     2:13:15 Brooke AMPHLETT         Milton         7/13  W30 - 34      423    5    192   21:23  2:51    9    216 1:10:04  25.7     5    183   41:49  5:49         
  205     2:13:16 Kelcy DEPOOTER          Kingston      10/13  W25 - 29      437    9    163   20:28  2:44    6    181 1:05:33  27.5     12   233   47:17  6:34         
  206     2:13:18 Daunine GOUGH           Brighton      17/23  W40 - 44      513    19   217   23:04  3:05    16   203 1:08:27  26.3     13   182   41:48  5:49         
  207     2:13:19 Peter NELSON            Kingston      23/25  M45 - 49      591    20   174   20:50  2:47    24   212 1:09:28  25.9     20   202   43:02  5:59         
  208     2:13:34 Derek LANCOP            Kingston      14/15  M30 - 34      469    15   259   31:08  4:10    11   135 1:02:10  29.0     13   171   40:17  5:36         
  209     2:13:45 Glenn COLLINS           Fairport      21/25  M50 - 54      405    24   249   28:01  3:45    20   189 1:06:17  27.2     17   159   39:28  5:29         
  210     2:13:56 Katherine HILLEN        Kingston      18/23  W40 - 44      507    18   214   22:56  3:04    15   196 1:07:09  26.8     19   215   43:52  6:06         
  211     2:14:13 Bob PULZLOCHER          Inverary      22/25  M50 - 54      453    25   251   28:41  3:50    22   205 1:08:49  26.2     11   123   36:45  5:07         
  212     2:14:58 Kathryn KITNEY          Kingston      11/13  W25 - 29      391    13   190   21:20  2:51    10   222 1:10:46  25.4     9    197   42:54  5:58         
  213     2:15:06 Lorry GRIMARD           Kingston       7/11  W20 - 24      449    8    132   19:29  2:36    6    225 1:11:07  25.3     8    221   44:31  6:11         
  214     2:15:19 Abby DACHO              Kingston       8/11  W20 - 24      512    9    175   20:51  2:47    8    235 1:13:15  24.6     6    179   41:14  5:44         
  215     2:16:06 Geoff FLYNN             Bath           2/2   M70 - 74      310    1    172   20:43  2:46    2    185 1:06:02  27.3     2    246   49:22  6:52         
  216     2:16:34 Patricia DISPERATI      Kingston       8/13  W30 - 34      397    9    211   22:47  3:03    8    210 1:09:19  26.0     9    220   44:29  6:11         
  217     2:17:14 Lisette WESTENBERG      Kingston      19/23  W40 - 44      377    15   189   21:18  2:51    19   223 1:10:47  25.4     20   223   45:09  6:17         
  218     2:17:18 Kevin HALL              Kingston      23/25  M50 - 54      493    8     86   17:48  2:23    21   190 1:06:33  27.0     23   254   52:59  7:22         
  219     2:17:25 Lesley DALGLEISH        Rr#2 inverar  16/22  W35 - 39      521    9    128   19:22  2:35    17   221 1:10:35  25.5     16   235   47:28  6:36         
  220     2:17:39 Kelly TAKE              Kingston       9/13  W30 - 34      461    10   212   22:49  3:03    5    194 1:07:06  26.8     12   239   47:44  6:38         
  221     2:17:48 Marta MAKSYMEC          Inverary       9/15  W45 - 49      590    8    148   19:59  2:40    9    219 1:10:15  25.6     12   236   47:35  6:37         
  222     2:17:58 Martha GARRIOCK         Toronto       10/13  W30 - 34      485    6    195   21:55  2:56    10   239 1:14:01  24.3     6    188   42:04  5:51         
  223     2:18:30 Jay JAMES               Napanee       18/21  M35 - 39      399    19   238   25:24  3:24    19   166 1:04:15  28.0     20   244   48:52  6:48         
  224     2:18:50 Brian MCCORMICK         Kingston      19/21  M35 - 39      383    21   267   36:48  4:55    18   152 1:03:29  28.4     17   151   38:35  5:22         
  225     2:19:04 Jennifer MACKENZIE      Kingston      10/15  W45 - 49      354    9    199   22:13  2:58    10   230 1:12:07  25.0     10   222   44:45  6:13         
  226     2:19:05 Greg COLLINS            Fairport       6/8   M20 - 24      572    7    248   28:01  3:45    6    215 1:10:02  25.7     6    178   41:03  5:42         
  227     2:19:25 Katherine BRUCE         Toronto       11/15  W45 - 49      407    11   209   22:45  3:02    11   233 1:12:39  24.8     9    216   44:03  6:07         
  228     2:20:08 Linda MOWAT             Uxbridge      17/22  W35 - 39      396    20   233   24:32  3:17    10   191 1:06:48  26.9     19   243   48:48  6:47         
  229     2:20:30 Michelle COWIN          Kingston       9/11  W20 - 24      547    7    113   18:52  2:31    7    234 1:12:41  24.8     9    245   48:58  6:49         
  230     2:21:21 Chris ROBERTS           Kingston      24/25  M45 - 49      535    25   261   31:19  4:11    23   192 1:06:49  26.9     21   206   43:14  6:01         
  231     2:21:43 Tanya GARRAH            Kingston      18/22  W35 - 39      488    16   182   21:01  2:49    16   214 1:09:57  25.7     20   248   50:46  7:03         
  232     2:22:16 John R. ARMITAGE        Kingston       4/5   M60 - 64      556    3    231   24:19  3:15    4    228 1:11:37  25.1     5    228   46:20  6:27         
  233     2:23:34 Sharon DE-LISSER        Kingston      12/13  W25 - 29      386    12   186   21:06  2:49    11   226 1:11:16  25.3     13   250   51:13  7:07         
  234     2:24:04 Julie BELBECK           Petawawa      11/13  W30 - 34      492    12   226   23:36  3:09    11   243 1:15:02  24.0     10   225   45:27  6:19         
  235     2:25:01 Shawn LAPLANTE          Bath          20/21  M35 - 39      395    20   245   27:21  3:39    20   229 1:12:07  25.0     19   226   45:34  6:20         
  236     2:25:11 Jill BADGERY            Ottawa        20/23  W40 - 44      546    20   220   23:11  3:06    20   240 1:14:01  24.3     21   242   47:59  6:40         
  237     2:25:13 Theresa WALLACE         Ottawa         4/6   W50 - 54      331    4    221   23:14  3:06    4    241 1:14:15  24.2     5    240   47:45  6:38         
  238     2:25:52 Sean KELLY              Kingston      15/15  M30 - 34      358    14   244   27:15  3:38    15   227 1:11:25  25.2     15   232   47:12  6:34         
  239     2:28:10 Wendy PENTLAND          Kingston       5/6   W50 - 54      561    5    228   23:47  3:11    5    251 1:18:01  23.1     3    229   46:23  6:27         
  240     2:28:30 Robin TUCK              Vineyard Hav  21/23  W40 - 44      436    4    102   18:18  2:27    22   262 1:28:16  20.4     14   187   41:57  5:50         
  241     2:28:31 Maria GARCIA PIERRENOEL Kingston Ont  12/13  W30 - 34      336    13   241   26:32  3:33    12   247 1:15:54  23.7     11   227   46:06  6:25         
  242     2:29:19 Elizabeth DUTWEILER     East Amherst   4/4   Junior Women  458    4    264   34:09  4:34    4    260 1:22:25  21.8     1     57   32:46  4:34         
  243     2:30:02 Chris CLEMENT           Kingston       7/8   M20 - 24      304    6    247   27:55  3:44    7    245 1:15:27  23.9     7    230   46:42  6:30         
  244     2:30:20 Brittany VANDENTILLAART Kingston      10/11  W20 - 24      446    10   223   23:25  3:08    9    248 1:16:05  23.7     11   249   50:50  7:04         
  245     2:30:21 Rowenne LLOYD           Rowlands cas  19/22  W35 - 39      422    15   170   20:38  2:46    19   242 1:14:22  24.2     22   255   55:21  7:42         
  246     2:30:41 Erin MARCHINGTON        Toronto       13/13  W25 - 29      442    7    114   18:53  2:32    13   261 1:27:40  20.5     11   217   44:09  6:08         
  247     2:31:24 Ted BELBECK             Ingersoll      5/5   M60 - 64      491    5    258   30:57  4:08    5    244 1:15:02  24.0     4    224   45:26  6:19         
  248     2:31:31 Michelle MCSHANE        Perth Road    13/13  W30 - 34      389    8    204   22:22  2:59    13   257 1:21:19  22.1     13   241   47:50  6:39         
  249     2:32:24 Cathy DAVISON           Seeleys bay   12/15  W45 - 49      338    13   252   29:31  3:57    12   246 1:15:36  23.8     11   234   47:18  6:35         
  250     2:34:17 Averil SHADD            Kingston      20/22  W35 - 39      529    19   230   24:11  3:14    20   249 1:17:11  23.3     21   253   52:56  7:22         
  251     2:36:16 Brad SHERIDAN           Erin          24/25  M50 - 54      325    23   242   26:36  3:33    25   217 1:10:09  25.7     24   262   59:32  8:17         
  252     2:36:30 Gillian KELLY           Kingston       1/1   W60 - 64      419    1    237   25:05  3:21    1    231 1:12:14  24.9     1    261   59:12  8:14         
  253     2:36:56 Stephanie WISNIEWSKI    Harrowsmith   22/23  W40 - 44      369    21   235   24:47  3:19    21   252 1:20:46  22.3     22   252   51:24  7:09         
  254     2:38:02 Jane MCCALDON           Hartington     1/1   W70 - 74      474    1    229   24:08  3:14    1    238 1:13:51  24.4     1    263 1:00:03  8:21         
  255     2:38:02 Caitlyn DANARD          Kingston      11/11  W20 - 24      306    11   246   27:32  3:41    11   253 1:20:56  22.2     10   247   49:35  6:54         
  256     2:38:30 Susan STREIGHT          Kingston      13/15  W45 - 49      528    12   240   26:09  3:30    13   254 1:21:07  22.2     13   251   51:15  7:08         
  257     2:39:15 Peter SLAUGHTER         Kingston      25/25  M45 - 49      364    24   250   28:32  3:49    25   232 1:12:32  24.8     25   260   58:13  8:06         
  258     2:40:13 Christine QUENNEVILLE   Kingston      21/22  W35 - 39      519    21   260   31:19  4:11    22   256 1:21:19  22.1     18   238   47:36  6:37         
  259     2:40:14 Johanna SVEINSON        Kingston      22/22  W35 - 39      518    22   262   31:21  4:11    21   255 1:21:18  22.1     17   237   47:35  6:37         
  260     2:42:09 Paul J. MCANENEY        Toronto        1/1   M65 - 69      530    1    256   30:29  4:04    1    237 1:13:40  24.4     1    259   58:01  8:04         
  261     2:44:15 Lori TEMPLETON          Stittsville    6/6   W50 - 54      301    6    236   24:53  3:20    6    259 1:21:55  22.0     6    258   57:28  7:59         
  262     3:03:34 Brenda RAPS             Courtice      14/15  W45 - 49      445    14   263   32:04  4:17    14   263 1:28:39  20.3     15   264 1:02:53  8:44         
  263     3:03:34 Fiona DUTWEILER         East Amherst  15/15  W45 - 49      457    15   265   34:10  4:34    15   266 1:32:12  19.5     14   257   57:13  7:57         
  264     3:05:18 Jesse BRAUN             Kingston       8/8   M20 - 24      382    8    266   36:47  4:55    8    267 1:32:43  19.4     8    256   55:49  7:46         
  265     3:11:23 Douglas KNOWLES         Kingston       1/1   M80 & Over    584    1    268   42:21  5:39    1    258 1:21:53  22.0     1    265 1:07:10  9:20         
  266     3:14:21 Lynda MILINA            Ottawa        23/23  W40 - 44      553    23   255   30:19  4:03    23   264 1:29:17  20.2     23   267 1:14:46 10:23         
  267     3:14:22 Ruth GEORGE             Kingston       1/1   W65 - 69      548    1    254   30:17  4:03    1    265 1:29:20  20.1     1    266 1:14:45 10:23         
  268 DNF         James MATHERS           Toronto       25/25  M50 - 54      500    14   146   19:56  2:40    9     71   57:35  31.3                                    
  269 DNF         Jeff WALSH              Belleville    21/21  M35 - 39      435    3     34   15:28  2:04